createdAt,value
2022-08-05T00:00:17.712Z,27.79
2022-08-05T00:02:51.383Z,28.20
2022-08-05T00:06:03.030Z,27.28
2022-08-05T00:08:32.901Z,28.25
2022-08-05T00:10:53.977Z,27.91
2022-08-05T00:13:20.638Z,27.55
2022-08-05T00:16:08.439Z,27.36
2022-08-05T00:18:40.989Z,27.51
2022-08-05T00:21:09.392Z,27.42
2022-08-05T00:23:46.717Z,27.09
2022-08-05T00:26:22.155Z,27.29
2022-08-05T00:28:49.947Z,27.25
2022-08-05T00:31:16.589Z,27.23
2022-08-05T00:34:53.308Z,26.95
2022-08-05T00:37:10.519Z,27.02
2022-08-05T00:39:44.512Z,27.04
2022-08-05T00:42:37.717Z,27.17
2022-08-05T00:45:08.679Z,27.00
2022-08-05T00:47:56.657Z,27.05
2022-08-05T00:50:25.460Z,27.21
2022-08-05T00:52:53.354Z,26.83
2022-08-05T00:55:23.219Z,27.20
2022-08-05T00:58:01.319Z,27.36
2022-08-05T01:00:29.853Z,27.29
2022-08-05T01:02:59.730Z,27.06
2022-08-05T01:05:27.788Z,27.02
2022-08-05T01:08:40.662Z,26.76
2022-08-05T01:10:54.082Z,27.24
2022-08-05T01:13:57.494Z,27.17
2022-08-05T01:16:44.234Z,27.01
2022-08-05T01:19:19.106Z,27.00
2022-08-05T01:22:04.711Z,27.05
2022-08-05T01:24:49.667Z,26.64
2022-08-05T01:27:19.681Z,26.56
2022-08-05T01:29:54.628Z,26.58
2022-08-05T01:32:27.576Z,26.27
2022-08-05T01:35:03.396Z,26.56
2022-08-05T01:37:44.525Z,26.59
2022-08-05T01:40:14.176Z,26.57
2022-08-05T01:42:46.942Z,26.46
2022-08-05T01:45:16.592Z,26.35
2022-08-05T01:47:46.308Z,26.12
2022-08-05T01:50:28.539Z,26.03
2022-08-05T01:53:01.566Z,26.68
2022-08-05T01:55:36.016Z,26.69
2022-08-05T01:58:15.530Z,26.66
2022-08-05T02:00:48.842Z,26.44
2022-08-05T02:03:34.455Z,26.22
2022-08-05T02:06:03.666Z,26.45
2022-08-05T02:08:57.784Z,25.95
2022-08-05T02:11:34.100Z,25.98
2022-08-05T02:14:12.562Z,25.95
2022-08-05T02:16:53.280Z,26.22
2022-08-05T02:19:34.923Z,26.27
2022-08-05T02:22:25.624Z,26.56
2022-08-05T02:25:03.321Z,26.22
2022-08-05T02:27:58.927Z,26.38
2022-08-05T02:30:26.907Z,26.38
2022-08-05T02:32:56.693Z,25.83
2022-08-05T02:35:33.174Z,26.36
2022-08-05T02:38:09.563Z,25.23
2022-08-05T02:40:41.705Z,25.89
2022-08-05T02:43:13.870Z,26.02
2022-08-05T02:45:51.637Z,26.05
2022-08-05T02:48:29.171Z,26.12
2022-08-05T02:51:01.146Z,25.83
2022-08-05T02:53:39.549Z,25.25
2022-08-05T02:56:10.406Z,25.66
2022-08-05T02:58:44.942Z,25.30
2022-08-05T03:01:21.566Z,25.44
2022-08-05T03:04:02.582Z,26.17
2022-08-05T03:06:53.944Z,26.24
2022-08-05T03:09:27.127Z,26.31
2022-08-05T03:12:05.383Z,26.30
2022-08-05T03:14:32.287Z,26.27
2022-08-05T03:16:59.387Z,26.58
2022-08-05T03:19:33.953Z,26.51
2022-08-05T03:22:03.177Z,26.33
2022-08-05T03:24:32.533Z,26.14
2022-08-05T03:27:01.071Z,26.15
2022-08-05T03:29:44.827Z,25.99
2022-08-05T03:32:15.724Z,25.77
2022-08-05T03:34:50.518Z,25.59
2022-08-05T03:37:19.053Z,25.70
2022-08-05T03:39:59.475Z,25.89
2022-08-05T03:42:29.040Z,25.65
2022-08-05T03:44:55.985Z,26.02
2022-08-05T03:47:24.380Z,25.81
2022-08-05T03:49:52.398Z,25.68
2022-08-05T03:52:37.397Z,25.85
2022-08-05T03:56:05.579Z,25.61
2022-08-05T03:58:17.797Z,25.73
2022-08-05T04:00:51.555Z,25.75
2022-08-05T04:03:28.266Z,25.68
2022-08-05T04:05:57.959Z,25.61
2022-08-05T04:08:35.120Z,24.99
2022-08-05T04:11:04.918Z,25.12
2022-08-05T04:13:53.464Z,25.54
2022-08-05T04:16:24.095Z,25.82
2022-08-05T04:18:54.011Z,25.94
2022-08-05T04:22:08.641Z,26.12
2022-08-05T04:24:09.043Z,25.75
2022-08-05T04:26:40.902Z,25.64
2022-08-05T04:29:07.799Z,25.39
2022-08-05T04:31:38.763Z,25.42
2022-08-05T04:34:18.976Z,25.61
2022-08-05T04:36:53.226Z,25.67
2022-08-05T04:39:20.101Z,25.47
2022-08-05T04:41:48.432Z,25.47
2022-08-05T04:44:21.038Z,25.60
2022-08-05T04:46:55.862Z,25.42
2022-08-05T04:49:24.576Z,25.47
2022-08-05T04:52:00.246Z,25.58
2022-08-05T04:54:27.271Z,25.85
2022-08-05T04:56:58.931Z,25.66
2022-08-05T04:59:36.814Z,25.89
2022-08-05T05:02:36.203Z,26.03
2022-08-05T05:05:02.787Z,26.08
2022-08-05T05:07:32.635Z,26.22
2022-08-05T05:10:02.985Z,26.26
2022-08-05T05:12:29.997Z,26.32
2022-08-05T05:14:56.709Z,26.38
2022-08-05T05:17:55.969Z,26.44
2022-08-05T05:20:12.768Z,26.47
2022-08-05T05:22:40.678Z,26.46
2022-08-05T05:25:16.468Z,25.49
2022-08-05T05:27:53.780Z,25.64
2022-08-05T05:30:31.509Z,25.75
2022-08-05T05:33:16.602Z,25.71
2022-08-05T05:35:47.992Z,25.94
2022-08-05T05:38:22.889Z,25.94
2022-08-05T05:40:55.335Z,25.93
2022-08-05T05:43:56.814Z,25.70
2022-08-05T05:46:17.590Z,25.98
2022-08-05T05:48:47.789Z,26.33
2022-08-05T05:51:23.288Z,26.30
2022-08-05T05:53:57.747Z,26.60
2022-08-05T05:56:32.289Z,27.17
2022-08-05T05:59:05.354Z,27.14
2022-08-05T06:01:37.070Z,27.02
2022-08-05T06:04:12.211Z,27.42
2022-08-05T06:06:46.691Z,27.56
2022-08-05T06:09:17.086Z,26.81
2022-08-05T06:12:02.080Z,27.14
2022-08-05T06:14:31.217Z,27.29
2022-08-05T06:16:58.998Z,27.45
2022-08-05T06:19:35.052Z,27.89
2022-08-05T06:22:07.037Z,27.20
2022-08-05T06:24:35.292Z,27.62
2022-08-05T06:27:04.089Z,28.05
2022-08-05T06:29:48.864Z,28.28
2022-08-05T06:32:26.066Z,28.03
2022-08-05T06:34:57.367Z,28.17
2022-08-05T06:37:56.225Z,28.40
2022-08-05T06:40:13.720Z,28.10
2022-08-05T06:42:43.970Z,27.72
2022-08-05T06:45:20.679Z,28.77
2022-08-05T06:48:36.112Z,29.91
2022-08-05T06:50:35.177Z,31.05
2022-08-05T06:53:11.614Z,30.90
2022-08-05T06:55:46.153Z,31.60
2022-08-05T06:58:29.694Z,32.21
2022-08-05T07:01:01.696Z,32.30
2022-08-05T07:03:32.898Z,33.08
2022-08-05T07:06:05.694Z,33.40
2022-08-05T07:08:47.561Z,32.79
2022-08-05T07:11:22.477Z,32.93
2022-08-05T07:13:59.207Z,31.88
2022-08-05T07:17:57.357Z,32.24
2022-08-05T07:19:53.825Z,32.29
2022-08-05T07:22:07.635Z,31.80
2022-08-05T07:24:35.170Z,32.42
2022-08-05T07:27:10.754Z,32.18
2022-08-05T07:30:28.128Z,32.33
2022-08-05T07:32:26.107Z,32.09
2022-08-05T07:34:57.877Z,32.19
2022-08-05T07:37:29.063Z,32.77
2022-08-05T07:40:31.419Z,32.32
2022-08-05T07:42:53.739Z,31.90
2022-08-05T07:45:56.705Z,31.44
2022-08-05T07:48:07.154Z,31.19
2022-08-05T07:50:35.409Z,31.63
2022-08-05T07:53:03.545Z,31.99
2022-08-05T07:55:44.620Z,31.84
2022-08-05T07:58:54.698Z,31.66
2022-08-05T08:01:06.192Z,31.66
2022-08-05T08:03:44.468Z,32.53
2022-08-05T08:06:11.709Z,32.27
2022-08-05T08:08:38.488Z,32.28
2022-08-05T08:11:08.983Z,31.89
2022-08-05T08:13:42.937Z,32.14
2022-08-05T08:16:49.745Z,32.26
2022-08-05T08:20:10.291Z,33.05
2022-08-05T08:22:00.514Z,33.50
2022-08-05T08:24:27.289Z,33.59
2022-08-05T08:27:16.667Z,33.65
2022-08-05T08:30:05.983Z,32.99
2022-08-05T08:32:30.147Z,33.53
2022-08-05T08:34:59.216Z,33.80
2022-08-05T08:37:27.943Z,34.44
2022-08-05T08:39:55.106Z,33.96
2022-08-05T08:42:34.073Z,34.23
2022-08-05T08:45:24.181Z,33.92
2022-08-05T08:48:12.364Z,34.94
2022-08-05T08:51:22.447Z,35.05
2022-08-05T08:53:36.944Z,33.87
2022-08-05T08:56:06.267Z,32.32
2022-08-05T08:58:43.981Z,32.02
2022-08-05T09:01:15.923Z,31.65
2022-08-05T09:03:55.366Z,31.43
2022-08-05T09:06:30.535Z,31.19
2022-08-05T09:09:01.707Z,31.00
2022-08-05T09:11:52.531Z,30.84
2022-08-05T09:14:57.621Z,31.19
2022-08-05T09:17:41.242Z,30.96
2022-08-05T09:20:02.913Z,31.90
2022-08-05T09:23:09.251Z,32.67
2022-08-05T09:26:02.155Z,33.16
2022-08-05T09:28:31.935Z,33.72
2022-08-05T09:31:22.753Z,33.90
2022-08-05T09:34:01.898Z,33.00
2022-08-05T09:36:55.650Z,32.47
2022-08-05T09:39:39.530Z,32.01
2022-08-05T09:42:23.289Z,31.67
2022-08-05T09:44:56.512Z,31.88
2022-08-05T09:47:36.577Z,31.70
2022-08-05T09:50:18.181Z,30.98
2022-08-05T09:53:00.536Z,31.49
2022-08-05T09:55:56.991Z,30.14
2022-08-05T09:58:15.266Z,30.49
2022-08-05T10:01:15.380Z,30.33
2022-08-05T10:04:11.014Z,30.97
2022-08-05T10:06:39.884Z,31.02
2022-08-05T10:09:24.963Z,30.85
2022-08-05T10:12:18.949Z,30.24
2022-08-05T10:14:54.473Z,29.97
2022-08-05T10:17:38.119Z,30.25
2022-08-05T10:20:09.755Z,29.83
2022-08-05T10:22:40.167Z,29.69
2022-08-05T10:25:10.114Z,30.02
2022-08-05T10:28:13.360Z,30.63
2022-08-05T10:31:19.890Z,30.94
2022-08-05T10:33:15.571Z,31.87
2022-08-05T10:35:44.160Z,31.85
2022-08-05T10:38:13.519Z,30.99
2022-08-05T10:40:49.350Z,30.88
2022-08-05T10:43:46.866Z,31.15
2022-08-05T10:46:18.307Z,30.88
2022-08-05T10:49:01.470Z,30.63
2022-08-05T10:51:48.635Z,30.15
2022-08-05T10:54:56.137Z,30.30
2022-08-05T10:57:29.399Z,30.92
2022-08-05T11:00:22.693Z,30.78
2022-08-05T11:03:23.889Z,30.69
2022-08-05T11:06:15.048Z,30.08
2022-08-05T11:09:24.161Z,31.28
2022-08-05T11:11:59.234Z,31.96
2022-08-05T11:15:01.495Z,31.57
2022-08-05T11:17:58.122Z,31.54
2022-08-05T11:20:49.780Z,30.84
2022-08-05T11:24:05.470Z,31.17
2022-08-05T11:26:32.510Z,31.32
2022-08-05T11:29:13.220Z,31.28
2022-08-05T11:31:58.204Z,31.11
2022-08-05T11:34:50.832Z,31.40
2022-08-05T11:38:28.305Z,31.22
2022-08-05T11:41:01.025Z,31.81
2022-08-05T11:44:06.534Z,31.89
2022-08-05T11:46:30.738Z,32.16
2022-08-05T11:49:01.548Z,32.36
2022-08-05T11:51:44.425Z,32.27
2022-08-05T11:54:33.508Z,31.70
2022-08-05T11:57:07.893Z,31.87
2022-08-05T11:59:50.037Z,31.93
2022-08-05T12:02:30.773Z,31.26
2022-08-05T12:05:07.439Z,32.08
2022-08-05T12:08:08.221Z,32.53
2022-08-05T12:10:43.567Z,31.99
2022-08-05T12:13:28.103Z,32.06
2022-08-05T12:16:14.508Z,32.58
2022-08-05T12:18:49.014Z,32.78
2022-08-05T12:21:41.835Z,32.77
2022-08-05T12:24:20.800Z,33.22
2022-08-05T12:26:54.455Z,33.07
2022-08-05T12:29:23.469Z,33.19
2022-08-05T12:31:53.556Z,33.14
2022-08-05T12:34:32.756Z,33.09
2022-08-05T12:37:06.694Z,32.97
2022-08-05T12:39:37.528Z,32.47
2022-08-05T12:42:20.239Z,32.54
2022-08-05T12:44:47.724Z,32.64
2022-08-05T12:47:30.627Z,32.56
2022-08-05T12:50:02.143Z,32.56
2022-08-05T12:52:38.592Z,32.66
2022-08-05T12:55:26.347Z,33.04
2022-08-05T12:58:50.058Z,33.23
2022-08-05T13:01:59.784Z,33.09
2022-08-05T13:03:41.497Z,33.46
2022-08-05T13:06:14.367Z,33.88
2022-08-05T13:08:51.556Z,33.59
2022-08-05T13:11:25.376Z,33.77
2022-08-05T13:14:19.851Z,34.06
2022-08-05T13:16:52.245Z,33.79
2022-08-05T13:19:21.631Z,33.79
2022-08-05T13:21:55.991Z,34.24
2022-08-05T13:24:36.599Z,34.08
2022-08-05T13:27:11.337Z,34.01
2022-08-05T13:30:31.566Z,34.14
2022-08-05T13:32:35.166Z,34.09
2022-08-05T13:35:10.245Z,34.51
2022-08-05T13:37:36.936Z,34.43
2022-08-05T13:40:15.890Z,34.49
2022-08-05T13:42:46.868Z,34.59
2022-08-05T13:45:13.739Z,34.75
2022-08-05T13:48:09.129Z,35.01
2022-08-05T13:50:37.213Z,34.77
2022-08-05T13:53:03.888Z,34.55
2022-08-05T13:55:41.926Z,34.42
2022-08-05T13:58:23.298Z,34.73
2022-08-05T14:00:58.532Z,34.68
2022-08-05T14:03:27.009Z,34.61
2022-08-05T14:06:24.845Z,34.62
2022-08-05T14:08:42.746Z,35.07
2022-08-05T14:11:20.646Z,34.79
2022-08-05T14:13:48.275Z,34.48
2022-08-05T14:16:16.959Z,34.86
2022-08-05T14:18:45.984Z,35.03
2022-08-05T14:22:07.704Z,35.13
2022-08-05T14:24:00.654Z,35.22
2022-08-05T14:26:35.717Z,35.42
2022-08-05T14:29:06.215Z,34.77
2022-08-05T14:32:02.410Z,35.58
2022-08-05T14:34:30.577Z,35.86
2022-08-05T14:37:02.986Z,35.47
2022-08-05T14:39:29.741Z,35.94
2022-08-05T14:42:21.237Z,34.57
2022-08-05T14:44:49.367Z,34.29
2022-08-05T14:47:17.432Z,34.24
2022-08-05T14:50:18.179Z,33.82
2022-08-05T14:52:52.922Z,33.27
2022-08-05T14:55:20.238Z,33.11
2022-08-05T14:57:54.579Z,32.28
2022-08-05T15:00:27.739Z,31.92
2022-08-05T15:02:55.372Z,31.73
2022-08-05T15:05:22.299Z,31.52
2022-08-05T15:08:06.363Z,31.35
2022-08-05T15:10:40.013Z,31.33
2022-08-05T15:13:10.302Z,31.32
2022-08-05T15:15:54.334Z,30.93
2022-08-05T15:18:23.046Z,31.00
2022-08-05T15:20:49.861Z,31.02
2022-08-05T15:23:18.109Z,31.18
2022-08-05T15:25:53.268Z,31.19
2022-08-05T15:28:27.205Z,31.05
2022-08-05T15:30:54.898Z,30.98
2022-08-05T15:34:05.291Z,31.02
2022-08-05T15:36:16.869Z,31.22
2022-08-05T15:38:50.975Z,31.23
2022-08-05T15:41:55.873Z,31.18
2022-08-05T15:44:24.385Z,31.21
2022-08-05T15:46:52.736Z,31.35
2022-08-05T15:49:41.854Z,31.34
2022-08-05T15:52:16.520Z,31.33
2022-08-05T15:54:46.431Z,31.39
2022-08-05T15:57:14.130Z,31.46
2022-08-05T15:59:43.022Z,31.39
2022-08-05T16:02:14.419Z,31.62
2022-08-05T16:04:55.005Z,31.50
2022-08-05T16:07:22.783Z,31.33
2022-08-05T16:09:50.235Z,31.29
2022-08-05T16:12:21.670Z,31.45
2022-08-05T16:14:48.395Z,31.50
2022-08-05T16:17:15.612Z,31.65
2022-08-05T16:20:04.199Z,31.47
2022-08-05T16:22:33.869Z,31.44
2022-08-05T16:25:09.334Z,31.37
2022-08-05T16:27:59.830Z,31.39
2022-08-05T16:30:26.316Z,31.57
2022-08-05T16:32:55.300Z,31.13
2022-08-05T16:35:28.651Z,31.28
2022-08-05T16:38:02.700Z,31.17
2022-08-05T16:40:47.712Z,30.87
2022-08-05T16:43:19.131Z,30.69
2022-08-05T16:46:03.727Z,31.00
2022-08-05T16:48:35.503Z,31.19
2022-08-05T16:51:09.287Z,31.21
2022-08-05T16:54:03.913Z,30.60
2022-08-05T16:56:30.628Z,30.23
2022-08-05T16:58:58.458Z,30.74
2022-08-05T17:01:25.621Z,30.59
2022-08-05T17:03:52.445Z,30.09
2022-08-05T17:06:20.920Z,29.39
2022-08-05T17:08:53.839Z,28.99
2022-08-05T17:11:25.350Z,28.86
2022-08-05T17:14:00.488Z,28.79
2022-08-05T17:16:38.276Z,28.56
2022-08-05T17:19:09.477Z,28.01
2022-08-05T17:21:39.668Z,27.88
2022-08-05T17:24:28.229Z,27.67
2022-08-05T17:26:57.571Z,28.04
2022-08-05T17:29:39.796Z,27.72
2022-08-05T17:32:11.434Z,27.60
2022-08-05T17:34:43.554Z,27.29
2022-08-05T17:37:27.276Z,26.96
2022-08-05T17:39:57.508Z,26.84
2022-08-05T17:42:32.161Z,26.62
2022-08-05T17:45:00.655Z,26.74
2022-08-05T17:47:44.614Z,26.90
2022-08-05T17:50:22.680Z,26.81
2022-08-05T17:52:56.202Z,26.14
2022-08-05T17:55:27.354Z,25.81
2022-08-05T17:58:01.762Z,25.92
2022-08-05T18:00:29.496Z,25.99
2022-08-05T18:02:56.491Z,26.65
2022-08-05T18:05:23.879Z,26.11
2022-08-05T18:07:55.049Z,25.66
2022-08-05T18:10:24.040Z,25.44
2022-08-05T18:12:51.287Z,25.54
2022-08-05T18:15:18.455Z,25.49
2022-08-05T18:18:00.523Z,25.39
2022-08-05T18:20:32.606Z,24.89
2022-08-05T18:23:00.611Z,24.85
2022-08-05T18:25:38.944Z,25.15
2022-08-05T18:28:06.826Z,25.33
2022-08-05T18:30:35.014Z,25.52
2022-08-05T18:33:05.679Z,25.91
2022-08-05T18:36:01.104Z,25.67
2022-08-05T18:38:26.127Z,25.88
2022-08-05T18:41:58.336Z,25.86
2022-08-05T18:43:43.002Z,25.82
2022-08-05T18:46:15.774Z,25.51
2022-08-05T18:48:52.080Z,25.77
2022-08-05T18:52:04.620Z,25.59
2022-08-05T18:54:10.831Z,25.37
2022-08-05T18:56:38.471Z,25.73
2022-08-05T18:59:43.620Z,25.76
2022-08-05T19:01:57.902Z,25.23
2022-08-05T19:04:25.837Z,25.39
2022-08-05T19:06:53.828Z,25.54
2022-08-05T19:09:21.870Z,25.66
2022-08-05T19:12:00.740Z,25.17
2022-08-05T19:14:52.345Z,25.21
2022-08-05T19:17:16.818Z,25.13
2022-08-05T19:19:46.474Z,25.07
2022-08-05T19:22:17.373Z,25.16
2022-08-05T19:24:55.836Z,25.12
2022-08-05T19:27:30.255Z,25.29
2022-08-05T19:29:57.528Z,25.02
2022-08-05T19:32:26.251Z,25.03
2022-08-05T19:34:55.807Z,25.16
2022-08-05T19:37:29.747Z,24.96
2022-08-05T19:40:02.524Z,24.64
2022-08-05T19:42:36.320Z,25.00
2022-08-05T19:45:06.833Z,25.10
2022-08-05T19:47:37.559Z,25.42
2022-08-05T19:50:06.207Z,25.15
2022-08-05T19:52:37.607Z,25.57
2022-08-05T19:55:06.611Z,25.41
2022-08-05T19:57:48.878Z,25.63
2022-08-05T20:00:21.082Z,25.35
2022-08-05T20:02:47.855Z,26.04
2022-08-05T20:05:24.583Z,25.99
2022-08-05T20:07:56.317Z,26.18
2022-08-05T20:10:25.908Z,25.91
2022-08-05T20:12:52.876Z,25.90
2022-08-05T20:15:48.734Z,25.30
2022-08-05T20:18:10.780Z,25.35
2022-08-05T20:20:56.353Z,25.37
2022-08-05T20:23:39.960Z,25.43
2022-08-05T20:26:16.351Z,25.23
2022-08-05T20:28:49.486Z,25.81
2022-08-05T20:31:22.825Z,25.48
2022-08-05T20:33:50.319Z,25.33
2022-08-05T20:36:18.249Z,25.40
2022-08-05T20:38:54.176Z,25.19
2022-08-05T20:41:27.271Z,25.14
2022-08-05T20:44:17.222Z,24.99
2022-08-05T20:46:47.066Z,24.99
2022-08-05T20:49:14.036Z,24.83
2022-08-05T20:51:41.028Z,24.63
2022-08-05T20:54:14.173Z,24.77
2022-08-05T20:56:42.494Z,24.97
2022-08-05T20:59:14.153Z,24.74
2022-08-05T21:01:46.664Z,24.41
2022-08-05T21:04:14.151Z,24.06
2022-08-05T21:06:45.812Z,24.28
2022-08-05T21:09:14.305Z,23.86
2022-08-05T21:12:06.760Z,24.02
2022-08-05T21:14:35.064Z,23.84
2022-08-05T21:17:05.748Z,24.16
2022-08-05T21:19:47.354Z,24.02
2022-08-05T21:22:17.634Z,23.99
2022-08-05T21:24:45.693Z,24.49
2022-08-05T21:27:16.890Z,24.34
2022-08-05T21:29:48.537Z,24.03
2022-08-05T21:32:20.015Z,24.13
2022-08-05T21:34:55.822Z,23.94
2022-08-05T21:37:35.100Z,23.87
2022-08-05T21:40:13.162Z,23.78
2022-08-05T21:42:45.302Z,23.41
2022-08-05T21:45:12.683Z,23.14
2022-08-05T21:47:56.172Z,23.17
2022-08-05T21:50:25.661Z,23.34
2022-08-05T21:52:52.528Z,23.34
2022-08-05T21:55:42.883Z,23.29
2022-08-05T21:58:06.956Z,22.98
2022-08-05T22:00:37.281Z,23.31
2022-08-05T22:03:03.955Z,22.96
2022-08-05T22:05:48.682Z,23.07
2022-08-05T22:08:22.480Z,22.92
2022-08-05T22:10:51.411Z,24.16
2022-08-05T22:14:06.148Z,24.07
2022-08-05T22:16:32.158Z,24.40
2022-08-05T22:18:58.699Z,24.97
2022-08-05T22:21:25.596Z,24.74
2022-08-05T22:24:02.565Z,23.87
2022-08-05T22:26:35.455Z,24.43
2022-08-05T22:29:02.426Z,24.56
2022-08-05T22:31:30.010Z,24.40
2022-08-05T22:34:01.607Z,24.29
2022-08-05T22:36:29.151Z,24.11
2022-08-05T22:38:56.727Z,24.21
2022-08-05T22:42:05.513Z,24.28
2022-08-05T22:44:12.048Z,24.62
2022-08-05T22:46:40.893Z,24.79
2022-08-05T22:49:23.285Z,23.92
2022-08-05T22:52:04.612Z,23.94
2022-08-05T22:54:34.026Z,24.03
2022-08-05T22:57:00.683Z,24.02
2022-08-05T22:59:43.767Z,23.69
2022-08-05T23:02:12.410Z,23.61
2022-08-05T23:04:43.709Z,23.31
2022-08-05T23:07:18.523Z,23.69
2022-08-05T23:09:53.262Z,23.54
2022-08-05T23:12:28.672Z,24.10
2022-08-05T23:14:55.696Z,24.34
2022-08-05T23:17:24.016Z,23.94
2022-08-05T23:20:00.991Z,23.90
2022-08-05T23:22:29.583Z,23.43
2022-08-05T23:24:58.178Z,22.96
2022-08-05T23:27:28.924Z,22.60
2022-08-05T23:30:10.668Z,22.75
2022-08-05T23:32:37.681Z,23.10
2022-08-05T23:35:11.795Z,23.08
2022-08-05T23:37:38.661Z,23.34
2022-08-05T23:40:07.436Z,22.68
2022-08-05T23:42:36.942Z,23.05
2022-08-05T23:45:05.116Z,22.80
2022-08-05T23:47:47.695Z,22.83
2022-08-05T23:50:17.117Z,22.79
2022-08-05T23:52:50.013Z,23.10
2022-08-05T23:55:18.015Z,23.32
2022-08-05T23:57:44.688Z,23.23
